Time;durP1;ratioP1;P1;durP2;ratioP2;P2;SDS_P1;SDS_P2;PMS_P1;PMS_P2;Temp;Humidity;BMP_temperature;BMP_pressure;BME280_temperature;BME280_humidity;BME280_pressure;Samples;Min_cycle;Max_cycle;Signal;HPM_P1;HPM_P2
2022/09/08 00:01:56;;;;;;;15.20;12.82;;;18.30;99.90;;;;;;5015139;28;20120;-77
2022/09/08 00:04:22;;;;;;;14.35;12.85;;;18.30;99.90;;;;;;5030248;28;20227;-78
2022/09/08 00:06:48;;;;;;;14.43;12.52;;;18.30;99.90;;;;;;5028141;28;20123;-78
2022/09/08 00:09:13;;;;;;;14.13;12.25;;;18.30;99.90;;;;;;5051196;28;20033;-78
2022/09/08 00:11:40;;;;;;;14.23;12.73;;;18.30;99.90;;;;;;5029300;28;20032;-78
2022/09/08 00:14:07;;;;;;;15.20;12.40;;;18.20;99.90;;;;;;5017156;28;20409;-78
2022/09/08 00:16:33;;;;;;;16.17;13.00;;;18.20;99.90;;;;;;5026336;28;20036;-82
2022/09/08 00:18:59;;;;;;;16.55;13.40;;;18.20;99.90;;;;;;5016772;28;20212;-78
2022/09/08 00:21:27;;;;;;;16.45;12.68;;;18.10;99.90;;;;;;5013565;28;20035;-78
2022/09/08 00:23:52;;;;;;;14.85;12.65;;;18.10;99.90;;;;;;5033492;28;20033;-78
2022/09/08 00:26:19;;;;;;;16.55;13.10;;;18.10;99.90;;;;;;5015766;28;20029;-77
2022/09/08 00:28:45;;;;;;;13.80;12.20;;;18.10;99.90;;;;;;5010796;28;20035;-80
2022/09/08 00:31:11;;;;;;;13.68;12.27;;;18.10;99.90;;;;;;5014183;28;20029;-78
2022/09/08 00:33:37;;;;;;;13.80;12.05;;;18.10;99.90;;;;;;5012281;28;20098;-78
2022/09/08 00:36:03;;;;;;;16.50;13.02;;;18.10;99.90;;;;;;5049288;28;20500;-77
2022/09/08 00:38:32;;;;;;;16.23;14.48;;;18.00;99.90;;;;;;5033634;28;20035;-79
2022/09/08 00:40:59;;;;;;;14.63;13.05;;;18.00;99.90;;;;;;5033336;28;20025;-78
2022/09/08 00:43:32;;;;;;;14.73;12.50;;;18.00;99.90;;;;;;5030297;28;20529;-77
2022/09/08 00:46:08;;;;;;;17.30;13.10;;;18.00;99.90;;;;;;5033520;28;20017;-77
2022/09/08 00:48:40;;;;;;;16.90;13.75;;;17.90;99.90;;;;;;5051109;28;20090;-78
2022/09/08 00:51:06;;;;;;;17.13;13.40;;;17.90;99.90;;;;;;5049631;28;20029;-77
2022/09/08 00:53:37;;;;;;;14.93;13.32;;;17.90;99.90;;;;;;5012975;28;20086;-78
2022/09/08 00:56:05;;;;;;;15.93;13.77;;;17.80;99.90;;;;;;5012380;28;20199;-78
2022/09/08 00:58:34;;;;;;;16.17;13.55;;;17.80;99.90;;;;;;5010185;28;20025;-78
2022/09/08 01:01:00;;;;;;;17.42;14.02;;;17.80;99.90;;;;;;5029634;28;20547;-78
2022/09/08 01:03:26;;;;;;;16.02;13.15;;;17.80;99.90;;;;;;5033401;28;20388;-78
2022/09/08 01:06:09;;;;;;;14.75;13.15;;;17.80;99.90;;;;;;5012138;28;20506;-80
2022/09/08 01:14:51;;;;;;;15.20;13.60;;;17.80;99.90;;;;;;5049372;28;20107;-77
2022/09/08 01:17:22;;;;;;;18.13;14.63;;;17.70;99.90;;;;;;5030422;28;20512;-77
2022/09/08 01:19:49;;;;;;;16.08;14.38;;;17.70;99.90;;;;;;5013360;28;20040;-79
2022/09/08 01:22:37;;;;;;;15.32;13.73;;;17.70;99.90;;;;;;5012348;28;20064;-77
2022/09/08 01:25:28;;;;;;;19.55;14.18;;;17.70;99.90;;;;;;5029656;28;20020;-77
2022/09/08 01:28:22;;;;;;;16.05;13.75;;;17.70;99.90;;;;;;5023918;28;20068;-76
2022/09/08 01:30:50;;;;;;;15.57;13.65;;;17.60;99.90;;;;;;5010755;28;20116;-78
2022/09/08 01:33:17;;;;;;;16.73;14.02;;;17.60;99.90;;;;;;5014589;28;20528;-78
2022/09/08 01:35:45;;;;;;;17.90;14.07;;;17.60;99.90;;;;;;5044342;28;20037;-78
2022/09/08 01:38:11;;;;;;;16.33;14.38;;;17.60;99.90;;;;;;5011606;28;20103;-78
2022/09/08 01:40:38;;;;;;;17.98;14.05;;;17.60;99.90;;;;;;5013898;28;20022;-78
2022/09/08 01:43:08;;;;;;;15.20;13.55;;;17.60;99.90;;;;;;5027455;28;20029;-78
2022/09/08 01:45:35;;;;;;;16.48;14.30;;;17.50;99.90;;;;;;5044247;28;20067;-78
2022/09/08 01:48:19;;;;;;;18.13;13.90;;;17.50;99.90;;;;;;5031618;28;20025;-78
2022/09/08 01:51:05;;;;;;;16.60;14.75;;;17.50;99.90;;;;;;5048963;28;20428;-77
2022/09/08 01:53:33;;;;;;;16.23;13.48;;;17.50;99.90;;;;;;5032226;28;20022;-77
2022/09/08 01:55:58;;;;;;;14.82;13.23;;;17.50;99.90;;;;;;5030410;28;20103;-77
2022/09/08 01:58:25;;;;;;;15.80;13.85;;;17.50;99.90;;;;;;5012674;28;20460;-76
2022/09/08 02:00:51;;;;;;;15.43;13.85;;;17.40;99.90;;;;;;5046936;28;20163;-77
2022/09/08 02:03:17;;;;;;;17.45;13.23;;;17.40;99.90;;;;;;5032061;28;20017;-76
2022/09/08 02:05:51;;;;;;;18.95;14.05;;;17.40;99.90;;;;;;5044095;28;20097;-78
2022/09/08 02:08:16;;;;;;;16.73;13.13;;;17.40;99.90;;;;;;5032965;28;20036;-79
2022/09/08 02:11:01;;;;;;;17.83;13.20;;;17.30;99.90;;;;;;5032786;28;20581;-78
2022/09/08 02:13:28;;;;;;;18.75;13.27;;;17.30;99.90;;;;;;5045890;28;20068;-79
2022/09/08 02:16:12;;;;;;;14.27;12.77;;;17.30;99.90;;;;;;5026513;28;20403;-77
2022/09/08 02:18:39;;;;;;;20.58;12.25;;;17.30;99.90;;;;;;5026697;28;20031;-77
2022/09/08 02:21:12;;;;;;;14.65;12.70;;;17.30;99.90;;;;;;5010647;28;20051;-77
2022/09/08 02:23:40;;;;;;;12.90;11.45;;;17.30;99.90;;;;;;5027447;28;20021;-78
2022/09/08 02:26:07;;;;;;;14.65;12.07;;;17.30;99.90;;;;;;5012272;28;20405;-77
2022/09/08 02:28:33;;;;;;;16.15;11.50;;;17.30;99.90;;;;;;5014243;28;20126;-77
2022/09/08 02:31:01;;;;;;;14.25;11.55;;;17.30;99.90;;;;;;5015237;28;20028;-78
2022/09/08 02:33:31;;;;;;;12.77;11.35;;;17.20;99.90;;;;;;5014712;28;20091;-77
2022/09/08 02:35:56;;;;;;;13.43;11.70;;;17.20;99.90;;;;;;5057164;28;20037;-80
2022/09/08 02:38:24;;;;;;;13.05;11.65;;;17.20;99.90;;;;;;5012814;28;20029;-78
2022/09/08 02:40:50;;;;;;;14.02;11.45;;;17.20;99.90;;;;;;5029590;28;20278;-79
2022/09/08 02:43:16;;;;;;;13.18;11.43;;;17.20;99.90;;;;;;5035359;28;20516;-80
2022/09/08 02:45:42;;;;;;;12.27;10.98;;;17.20;99.90;;;;;;5032644;28;20063;-78
2022/09/08 02:48:08;;;;;;;15.80;11.07;;;17.20;99.90;;;;;;5012177;28;20713;-78
2022/09/08 02:50:34;;;;;;;12.98;11.30;;;17.20;99.90;;;;;;5013423;28;20115;-79
2022/09/08 02:53:00;;;;;;;12.27;11.05;;;17.20;99.90;;;;;;5011182;28;20033;-77
2022/09/08 02:55:26;;;;;;;14.52;11.63;;;17.20;99.90;;;;;;5045720;28;20092;-76
2022/09/08 02:57:55;;;;;;;12.23;10.25;;;17.20;99.90;;;;;;5026075;28;20036;-78
2022/09/08 03:00:21;;;;;;;15.20;11.57;;;17.10;99.90;;;;;;5063828;28;20028;-79
2022/09/08 03:02:47;;;;;;;14.98;10.85;;;17.10;99.90;;;;;;5017580;28;20522;-77
2022/09/08 03:05:13;;;;;;;13.57;11.18;;;17.10;99.90;;;;;;5027749;28;20032;-77
2022/09/08 03:07:40;;;;;;;11.63;10.43;;;17.10;99.90;;;;;;5013014;28;20025;-79
2022/09/08 03:10:07;;;;;;;14.10;10.20;;;17.10;99.90;;;;;;5010158;28;20485;-78
2022/09/08 03:12:33;;;;;;;12.05;10.40;;;17.10;99.90;;;;;;5010542;28;20063;-81
2022/09/08 03:14:59;;;;;;;11.68;9.82;;;17.10;99.90;;;;;;5014074;28;20021;-78
2022/09/08 03:17:25;;;;;;;12.75;10.63;;;17.10;99.90;;;;;;5024755;28;20052;-76
2022/09/08 03:19:54;;;;;;;14.73;11.07;;;17.10;99.90;;;;;;5049043;28;20071;-77
2022/09/08 03:22:20;;;;;;;13.73;10.35;;;17.10;99.90;;;;;;5012329;28;20033;-77
2022/09/08 03:24:46;;;;;;;10.93;9.80;;;17.00;99.90;;;;;;5010929;28;20051;-77
2022/09/08 03:27:12;;;;;;;13.07;10.38;;;17.00;99.90;;;;;;5046314;28;20104;-76
2022/09/08 03:29:38;;;;;;;14.13;10.13;;;17.00;99.90;;;;;;5029286;28;20029;-77
2022/09/08 03:32:05;;;;;;;12.48;9.98;;;17.00;99.90;;;;;;5015219;28;20036;-77
2022/09/08 03:34:31;;;;;;;11.45;10.07;;;17.00;99.90;;;;;;5017035;28;20519;-77
2022/09/08 03:36:57;;;;;;;12.85;10.25;;;17.00;99.90;;;;;;5013853;28;20531;-78
2022/09/08 03:39:23;;;;;;;12.63;9.90;;;17.00;99.90;;;;;;5017940;28;20029;-77
2022/09/08 03:41:49;;;;;;;10.48;9.38;;;17.00;99.90;;;;;;5015398;28;20061;-79
2022/09/08 03:44:15;;;;;;;10.98;9.80;;;17.00;99.90;;;;;;5032612;28;20488;-77
2022/09/08 03:46:40;;;;;;;10.88;9.75;;;16.90;99.90;;;;;;5013632;28;20037;-77
2022/09/08 03:49:06;;;;;;;12.60;10.13;;;16.90;99.90;;;;;;5031458;28;20031;-77
2022/09/08 03:51:32;;;;;;;11.50;9.82;;;16.90;99.90;;;;;;5033207;28;20025;-77
2022/09/08 03:56:45;;;;;;;11.13;9.50;;;16.80;99.90;;;;;;5047092;28;20033;-77
2022/09/08 03:59:12;;;;;;;12.00;9.60;;;16.80;99.90;;;;;;5014680;28;20037;-77
2022/09/08 04:01:38;;;;;;;12.27;10.00;;;16.80;99.90;;;;;;5010630;28;20041;-78
2022/09/08 04:04:04;;;;;;;10.55;8.85;;;16.80;99.90;;;;;;5030321;28;20024;-76
2022/09/08 04:06:30;;;;;;;12.57;9.48;;;16.80;99.90;;;;;;5014798;28;20025;-76
2022/09/08 04:08:56;;;;;;;11.65;9.13;;;16.80;99.90;;;;;;5015649;28;20508;-77
2022/09/08 04:11:42;;;;;;;10.68;8.68;;;16.80;99.90;;;;;;5030732;28;20099;-76
2022/09/08 04:14:16;;;;;;;12.30;9.15;;;16.80;99.90;;;;;;5014527;28;20033;-76
2022/09/08 04:16:42;;;;;;;10.45;8.77;;;16.70;99.90;;;;;;5046597;28;20515;-77
2022/09/08 04:19:09;;;;;;;12.93;9.70;;;16.70;99.90;;;;;;5009665;28;20526;-78
2022/09/08 04:21:35;;;;;;;11.43;9.05;;;16.70;99.90;;;;;;5014679;28;20025;-76
2022/09/08 04:24:01;;;;;;;9.20;8.20;;;16.80;99.90;;;;;;5014278;28;20036;-76
2022/09/08 04:26:27;;;;;;;11.05;8.43;;;16.70;99.90;;;;;;5021118;28;20022;-76
2022/09/08 04:28:53;;;;;;;13.00;8.73;;;16.80;99.90;;;;;;5023889;28;20041;-78
2022/09/08 04:31:20;;;;;;;9.68;8.30;;;16.80;99.90;;;;;;5010173;28;20033;-77
2022/09/08 04:33:47;;;;;;;11.68;8.23;;;16.80;99.90;;;;;;5036113;28;20033;-77
2022/09/08 04:36:18;;;;;;;12.07;8.85;;;16.80;99.90;;;;;;5010719;28;20033;-77
2022/09/08 04:38:43;;;;;;;10.02;7.50;;;16.80;99.90;;;;;;5026789;28;20041;-77
2022/09/08 04:41:12;;;;;;;11.35;8.93;;;16.70;99.90;;;;;;5049553;28;20029;-72
2022/09/08 04:43:38;;;;;;;13.15;8.18;;;16.80;99.90;;;;;;5033858;28;20043;-73
2022/09/08 04:46:10;;;;;;;12.25;8.32;;;16.80;99.90;;;;;;5032086;28;20021;-73
2022/09/08 04:48:37;;;;;;;10.07;8.50;;;16.70;99.90;;;;;;5029088;28;20572;-75
2022/09/08 04:51:03;;;;;;;10.07;8.05;;;16.80;99.90;;;;;;5008651;28;20087;-73
2022/09/08 04:53:32;;;;;;;11.35;7.72;;;16.70;99.90;;;;;;5014746;28;20025;-74
2022/09/08 04:56:01;;;;;;;10.02;8.15;;;16.70;99.90;;;;;;5020171;28;20052;-72
2022/09/08 04:58:29;;;;;;;9.90;6.60;;;16.70;99.90;;;;;;5024367;28;20036;-73
2022/09/08 05:00:54;;;;;;;7.97;6.75;;;17.00;99.90;;;;;;5027353;28;20032;-74
2022/09/08 05:03:20;;;;;;;10.02;6.90;;;17.50;99.90;;;;;;5037200;28;20117;-74
2022/09/08 05:05:46;;;;;;;15.65;7.93;;;17.60;99.90;;;;;;5026404;28;20082;-72
2022/09/08 05:08:12;;;;;;;11.45;8.02;;;17.30;99.90;;;;;;5008462;28;20033;-72
2022/09/08 05:10:38;;;;;;;11.82;7.45;;;17.10;99.90;;;;;;5046921;28;20553;-73
2022/09/08 05:13:04;;;;;;;9.45;7.28;;;17.00;99.90;;;;;;5041341;28;20048;-73
2022/09/08 05:15:31;;;;;;;11.05;7.85;;;16.90;99.90;;;;;;5027073;28;20078;-78
2022/09/08 05:17:56;;;;;;;16.00;8.60;;;16.90;99.90;;;;;;5028369;28;20600;-77
2022/09/08 05:20:22;;;;;;;8.88;7.95;;;16.80;99.90;;;;;;5030613;28;20033;-77
2022/09/08 05:22:48;;;;;;;12.13;7.68;;;16.80;99.90;;;;;;5013568;28;20037;-78
2022/09/08 05:25:14;;;;;;;10.90;8.18;;;16.80;99.90;;;;;;5046614;28;20056;-77
2022/09/08 05:27:40;;;;;;;10.05;7.40;;;16.80;99.90;;;;;;5010211;28;20104;-78
2022/09/08 05:30:06;;;;;;;15.80;7.55;;;16.80;99.90;;;;;;5013023;28;20029;-80
2022/09/08 05:32:34;;;;;;;9.60;7.35;;;16.80;99.90;;;;;;5012164;28;20112;-77
2022/09/08 05:34:59;;;;;;;8.55;6.60;;;16.80;99.90;;;;;;5014424;28;20547;-77
2022/09/08 05:37:27;;;;;;;10.13;7.20;;;16.80;99.90;;;;;;5031481;28;20096;-77
2022/09/08 05:39:54;;;;;;;11.38;6.70;;;16.80;99.90;;;;;;5011004;28;20036;-78
2022/09/08 05:42:20;;;;;;;10.15;7.57;;;16.80;99.90;;;;;;5015849;28;20060;-78
2022/09/08 05:44:46;;;;;;;9.25;7.35;;;16.90;99.90;;;;;;5009116;28;20122;-78
2022/09/08 05:47:14;;;;;;;10.75;7.10;;;16.80;99.90;;;;;;5014686;28;20119;-77
2022/09/08 05:49:41;;;;;;;9.43;6.63;;;16.90;99.90;;;;;;5028642;28;20064;-78
2022/09/08 05:52:07;;;;;;;10.70;6.90;;;16.90;99.90;;;;;;5034840;28;20102;-76
2022/09/08 05:54:32;;;;;;;13.00;6.68;;;16.90;99.90;;;;;;5024743;28;20421;-76
2022/09/08 05:56:58;;;;;;;12.93;7.60;;;17.00;99.90;;;;;;5033415;28;20029;-76
2022/09/08 05:59:24;;;;;;;12.65;7.45;;;17.00;99.90;;;;;;5016533;28;20112;-76
2022/09/08 06:01:50;;;;;;;11.18;6.88;;;16.90;99.90;;;;;;5013331;28;20489;-77
2022/09/08 06:04:15;;;;;;;12.75;7.18;;;17.00;99.90;;;;;;5026613;28;20075;-76
2022/09/08 06:06:41;;;;;;;10.20;7.68;;;17.00;99.90;;;;;;5026404;28;20032;-77
2022/09/08 06:09:08;;;;;;;10.13;6.38;;;17.00;99.90;;;;;;5035513;28;20021;-79
2022/09/08 06:11:35;;;;;;;8.63;5.93;;;17.00;99.90;;;;;;5010626;28;20136;-77
2022/09/08 06:14:02;;;;;;;8.15;6.43;;;17.10;99.90;;;;;;5028559;28;20075;-76
2022/09/08 06:16:29;;;;;;;12.13;6.75;;;17.10;99.90;;;;;;5014430;28;20043;-77
2022/09/08 06:18:58;;;;;;;7.20;5.68;;;17.10;99.90;;;;;;5007956;28;20025;-74
2022/09/08 06:21:27;;;;;;;12.23;6.78;;;17.20;99.90;;;;;;5051306;28;20073;-78
2022/09/08 06:23:58;;;;;;;13.55;6.80;;;17.20;99.90;;;;;;5031863;28;20402;-76
2022/09/08 06:26:31;;;;;;;;;;;17.20;99.90;;;;;;5029958;28;20025;-76
2022/09/08 06:29:13;;;;;;;8.95;6.53;;;17.20;99.90;;;;;;5022735;28;19912;-76
2022/09/08 06:31:55;;;;;;;10.60;6.82;;;17.20;99.90;;;;;;5008263;28;20507;-76
2022/09/08 06:34:26;;;;;;;14.23;6.95;;;17.20;99.90;;;;;;5040167;28;20044;-69
2022/09/08 06:36:58;;;;;;;17.75;5.53;;;17.20;99.90;;;;;;5025701;28;20048;-77
2022/09/08 06:39:45;;;;;;;12.88;5.82;;;17.30;99.90;;;;;;5010894;28;20071;-76
2022/09/08 06:42:28;;;;;;;16.27;5.97;;;17.20;99.90;;;;;;5027420;28;20401;-75
2022/09/08 06:44:55;;;;;;;12.13;5.72;;;17.20;99.90;;;;;;5047179;28;20084;-75
2022/09/08 06:47:26;;;;;;;9.25;5.15;;;17.10;99.90;;;;;;5033917;28;20047;-75
2022/09/08 06:49:52;;;;;;;8.00;5.20;;;17.20;99.90;;;;;;5027868;28;20032;-74
2022/09/08 06:52:32;;;;;;;11.52;5.85;;;17.20;99.90;;;;;;5014687;28;20033;-74
2022/09/08 06:55:02;;;;;;;14.38;5.22;;;17.20;99.90;;;;;;5027062;28;20493;-76
2022/09/08 06:57:39;;;;;;;10.93;5.35;;;17.10;99.90;;;;;;5047824;28;20036;-75
2022/09/08 07:00:23;;;;;;;9.43;5.57;;;17.20;99.90;;;;;;5028356;28;20033;-75
2022/09/08 07:02:55;;;;;;;10.43;5.07;;;17.20;99.90;;;;;;5007877;28;20498;-77
2022/09/08 07:05:34;;;;;;;9.95;5.55;;;17.30;99.90;;;;;;5036007;28;20022;-75
2022/09/08 07:08:21;;;;;;;8.23;5.22;;;17.20;99.90;;;;;;5031456;28;20052;-77
2022/09/08 07:11:01;;;;;;;10.43;4.97;;;17.20;99.90;;;;;;5041514;28;20506;-75
2022/09/08 07:14:15;;;;;;;10.25;5.30;;;17.20;99.90;;;;;;5033641;28;20041;-75
2022/09/08 07:16:47;;;;;;;10.80;5.22;;;17.20;99.90;;;;;;5027144;28;20049;-76
2022/09/08 07:19:21;;;;;;;9.88;5.10;;;17.30;99.90;;;;;;5046752;28;20037;-78
2022/09/08 07:21:55;;;;;;;17.23;5.35;;;17.30;99.90;;;;;;5043735;28;20036;-76
2022/09/08 07:24:27;;;;;;;18.23;5.78;;;17.30;99.90;;;;;;5036484;28;20021;-75
2022/09/08 07:26:59;;;;;;;10.10;5.05;;;17.30;99.90;;;;;;5034943;28;20029;-76
2022/09/08 07:29:29;;;;;;;11.23;5.50;;;17.30;99.90;;;;;;5034091;28;20044;-77
2022/09/08 07:31:57;;;;;;;9.13;5.43;;;17.30;99.90;;;;;;5033345;28;20048;-75
2022/09/08 07:34:26;;;;;;;8.85;5.30;;;17.30;99.90;;;;;;5033465;28;20037;-74
2022/09/08 07:37:14;;;;;;;9.32;4.97;;;17.30;99.90;;;;;;5033685;28;20037;-76
2022/09/08 07:39:57;;;;;;;16.70;5.68;;;17.30;99.90;;;;;;5032872;28;20029;-75
2022/09/08 07:42:23;;;;;;;8.88;4.57;;;17.30;99.90;;;;;;5047010;28;20029;-75
2022/09/08 07:44:57;;;;;;;11.55;5.20;;;17.20;99.90;;;;;;5033410;28;20048;-75
2022/09/08 07:47:49;;;;;;;8.88;4.40;;;17.30;99.90;;;;;;5031571;28;20094;-76
2022/09/08 07:54:00;;;;;;;8.52;4.82;;;17.30;99.90;;;;;;5049875;28;20163;-77
2022/09/08 07:56:42;;;;;;;12.93;4.75;;;17.20;99.90;;;;;;5049920;28;20067;-75
2022/09/08 07:59:39;;;;;;;5.40;4.00;;;17.30;99.90;;;;;;5034217;28;20519;-75
2022/09/08 08:02:10;;;;;;;16.13;4.97;;;17.30;99.90;;;;;;5033788;28;20044;-76
2022/09/08 08:04:54;;;;;;;8.60;4.32;;;17.30;99.90;;;;;;5050862;28;20017;-76
2022/09/08 08:07:30;;;;;;;6.57;3.80;;;17.30;99.90;;;;;;5038947;28;20087;-77
2022/09/08 08:10:26;;;;;;;7.95;4.10;;;17.30;99.90;;;;;;5051949;28;20083;-77
2022/09/08 08:13:28;;;;;;;9.13;4.45;;;17.40;99.90;;;;;;5035488;28;20033;-77
2022/09/08 08:16:08;;;;;;;7.82;4.25;;;17.40;99.90;;;;;;5024756;28;20040;-76
2022/09/08 08:19:09;;;;;;;7.97;3.70;;;17.40;99.90;;;;;;5012352;28;20032;-77
2022/09/08 08:21:43;;;;;;;8.85;4.40;;;17.30;99.90;;;;;;5048029;28;20512;-77
2022/09/08 08:24:21;;;;;;;12.73;4.72;;;17.30;99.90;;;;;;5049414;28;20500;-77
2022/09/08 08:27:19;;;;;;;7.45;3.90;;;17.30;99.90;;;;;;5016955;28;20033;-77
2022/09/08 08:30:17;;;;;;;6.80;4.22;;;17.30;99.90;;;;;;5028029;28;20041;-77
2022/09/08 08:32:56;;;;;;;9.43;4.07;;;17.20;99.90;;;;;;5021179;28;20045;-77
2022/09/08 08:35:40;;;;;;;6.90;3.72;;;17.20;99.90;;;;;;5042355;28;20033;-76
2022/09/08 08:38:13;;;;;;;8.95;3.70;;;17.20;99.90;;;;;;5045722;28;20025;-77
2022/09/08 08:41:05;;;;;;;10.00;4.22;;;17.20;99.90;;;;;;5049419;28;20128;-76
2022/09/08 08:43:45;;;;;;;12.77;4.68;;;17.20;99.90;;;;;;5049391;28;20049;-77
2022/09/08 08:46:10;;;;;;;6.18;3.85;;;17.20;99.90;;;;;;5013918;28;20168;-78
2022/09/08 08:48:42;;;;;;;6.75;3.92;;;17.20;99.90;;;;;;5051495;28;20100;-77
2022/09/08 08:51:36;;;;;;;9.57;4.05;;;17.20;99.90;;;;;;5031030;28;20055;-77
2022/09/08 08:54:20;;;;;;;14.23;4.38;;;17.30;99.90;;;;;;5012816;28;20039;-76
2022/09/08 08:57:04;;;;;;;5.68;3.63;;;17.30;99.90;;;;;;5016706;28;20025;-76
2022/09/08 08:59:56;;;;;;;8.10;3.72;;;17.30;99.90;;;;;;5031543;28;20108;-76
2022/09/08 09:02:33;;;;;;;;;;;17.20;99.90;;;;;;5044206;28;20116;-77
2022/09/08 09:05:27;;;;;;;10.68;3.85;;;17.30;99.90;;;;;;5043991;28;19912;-76
2022/09/08 09:08:24;;;;;;;8.90;4.32;;;17.30;99.90;;;;;;5040771;28;20056;-76
2022/09/08 09:11:05;;;;;;;10.88;3.55;;;17.30;99.90;;;;;;5042851;28;20079;-77
2022/09/08 09:14:12;;;;;;;11.45;3.92;;;17.40;99.90;;;;;;5054219;28;20513;-76
2022/09/08 09:16:57;;;;;;;7.45;3.33;;;17.40;99.90;;;;;;5021679;28;20025;-76
2022/09/08 09:20:00;;;;;;;7.00;3.67;;;17.60;99.90;;;;;;5027408;28;20025;-75
2022/09/08 09:22:47;;;;;;;11.07;3.95;;;17.70;99.90;;;;;;5033152;28;20052;-75
2022/09/08 09:25:21;;;;;;;8.23;3.80;;;17.80;99.90;;;;;;5052491;28;20028;-76
2022/09/08 09:28:08;;;;;;;9.00;3.58;;;17.80;99.90;;;;;;5031338;28;20048;-76
2022/09/08 09:31:07;;;;;;;9.20;3.75;;;18.00;99.90;;;;;;5050267;28;20405;-76
2022/09/08 09:34:49;;;;;;;7.15;3.30;;;18.10;99.90;;;;;;5046596;28;20466;-76
2022/09/08 09:37:56;;;;;;;10.10;3.88;;;18.10;99.90;;;;;;4961902;28;20053;-77
2022/09/08 09:40:25;;;;;;;13.27;3.90;;;18.00;99.90;;;;;;4949691;28;20041;-75
2022/09/08 09:43:03;;;;;;;7.70;3.58;;;18.10;99.90;;;;;;5037788;28;20049;-75
2022/09/08 09:46:10;;;;;;;7.03;3.78;;;18.10;99.90;;;;;;5016333;28;20086;-74
2022/09/08 09:48:59;;;;;;;11.75;3.95;;;18.20;99.90;;;;;;5030287;28;20017;-74
2022/09/08 09:51:39;;;;;;;13.20;4.13;;;18.20;99.90;;;;;;5055403;28;20029;-76
2022/09/08 09:54:21;;;;;;;8.63;3.57;;;18.30;99.90;;;;;;5066458;28;20037;-77
2022/09/08 09:57:25;;;;;;;11.43;3.95;;;18.40;99.90;;;;;;5024617;28;20036;-77
2022/09/08 10:00:13;;;;;;;5.72;3.35;;;18.30;99.90;;;;;;5037076;28;20065;-75
2022/09/08 10:02:39;;;;;;;5.78;3.72;;;18.20;99.90;;;;;;5040940;28;20116;-77
2022/09/08 10:05:38;;;;;;;5.38;3.55;;;18.20;99.90;;;;;;5016407;28;20021;-76
2022/09/08 10:08:40;;;;;;;9.85;3.78;;;18.10;99.90;;;;;;5001700;28;20503;-76
2022/09/08 10:11:34;;;;;;;7.18;3.42;;;18.10;99.90;;;;;;5025082;28;20404;-76
2022/09/08 10:14:08;;;;;;;8.25;4.22;;;18.10;99.90;;;;;;5033895;28;20044;-76
2022/09/08 10:16:53;;;;;;;11.48;3.58;;;18.00;99.90;;;;;;5042824;28;20025;-76
2022/09/08 10:19:43;;;;;;;7.72;3.60;;;18.10;99.90;;;;;;5030923;28;20059;-77
2022/09/08 10:22:36;;;;;;;9.02;3.88;;;18.20;99.90;;;;;;5041974;28;20547;-77
2022/09/08 10:25:10;;;;;;;7.43;3.95;;;18.20;99.90;;;;;;5008082;28;20108;-76
2022/09/08 10:28:06;;;;;;;7.05;4.00;;;18.20;99.90;;;;;;5025772;28;20051;-76
2022/09/08 10:30:35;;;;;;;8.15;4.72;;;18.10;99.90;;;;;;5034351;28;20025;-78
2022/09/08 10:33:36;;;;;;;7.13;4.00;;;18.10;99.90;;;;;;5034093;28;20033;-78
2022/09/08 10:36:12;;;;;;;6.72;3.90;;;18.00;99.90;;;;;;5032339;28;20033;-80
2022/09/08 10:39:04;;;;;;;7.10;4.25;;;18.00;99.90;;;;;;5045634;28;20883;-78
2022/09/08 10:42:12;;;;;;;9.50;3.97;;;17.80;99.90;;;;;;5028362;28;20404;-76
2022/09/08 10:44:43;;;;;;;7.13;3.80;;;17.70;99.90;;;;;;5026947;28;20025;-73
2022/09/08 10:47:20;;;;;;;9.65;4.65;;;17.70;99.90;;;;;;5010906;28;20458;-76
2022/09/08 10:50:06;;;;;;;5.97;3.88;;;17.60;99.90;;;;;;5043081;28;20033;-74
2022/09/08 10:52:52;;;;;;;8.95;4.72;;;17.40;99.90;;;;;;5044464;28;20115;-76
2022/09/08 10:55:37;;;;;;;13.13;5.38;;;17.30;99.90;;;;;;5044362;28;20135;-75
2022/09/08 10:58:35;;;;;;;13.13;5.30;;;17.10;99.90;;;;;;5024903;28;20037;-73
2022/09/08 11:01:34;;;;;;;10.82;6.00;;;17.00;99.90;;;;;;5043098;28;20570;-74
2022/09/08 11:04:24;;;;;;;12.50;6.65;;;16.90;99.90;;;;;;5043542;28;20407;-74
2022/09/08 11:06:53;;;;;;;9.10;5.75;;;16.80;99.90;;;;;;5029078;28;20056;-75
2022/09/08 11:09:30;;;;;;;6.97;5.22;;;16.80;99.90;;;;;;5029651;28;20036;-76
2022/09/08 11:12:14;;;;;;;10.98;5.60;;;16.70;99.90;;;;;;5031522;28;20457;-76
2022/09/08 11:14:59;;;;;;;9.70;5.93;;;16.70;99.90;;;;;;5034860;28;20032;-76
2022/09/08 11:17:26;;;;;;;14.18;6.68;;;16.60;99.90;;;;;;5025823;28;20135;-75
2022/09/08 11:19:57;;;;;;;14.95;6.53;;;16.60;99.90;;;;;;5046281;28;20033;-74
2022/09/08 11:22:28;;;;;;;11.45;6.18;;;16.50;99.90;;;;;;5047510;28;20516;-73
2022/09/08 11:25:21;;;;;;;11.30;6.68;;;16.50;99.90;;;;;;5027284;28;20040;-74
2022/09/08 11:28:17;;;;;;;12.45;6.63;;;16.40;99.90;;;;;;5047915;28;20033;-75
2022/09/08 11:31:07;;;;;;;13.77;7.47;;;16.40;99.90;;;;;;5027955;28;20418;-74
2022/09/08 11:33:46;;;;;;;14.30;8.15;;;16.30;99.90;;;;;;5046126;28;20051;-74
2022/09/08 11:36:34;;;;;;;16.92;8.10;;;16.30;99.90;;;;;;5022663;28;20029;-74
2022/09/08 11:39:14;;;;;;;14.45;7.88;;;16.20;99.90;;;;;;5034513;28;20040;-74
2022/09/08 11:41:58;;;;;;;14.63;7.73;;;16.20;99.90;;;;;;5041275;28;20473;-76
2022/09/08 11:44:43;;;;;;;15.02;7.95;;;16.10;99.90;;;;;;5048178;28;20351;-76
2022/09/08 11:47:14;;;;;;;17.67;8.88;;;16.10;99.90;;;;;;5027786;28;20637;-74
2022/09/08 11:50:02;;;;;;;12.52;8.43;;;16.00;99.90;;;;;;5036428;28;20370;-78
2022/09/08 11:52:56;;;;;;;15.07;8.50;;;16.00;99.90;;;;;;5049797;28;20033;-78
2022/09/08 11:56:05;;;;;;;13.48;8.30;;;16.00;99.90;;;;;;4999084;28;20566;-77
2022/09/08 11:58:50;;;;;;;13.02;7.95;;;16.10;99.90;;;;;;5031536;28;20492;-82
2022/09/08 12:01:32;;;;;;;217.32;139.40;;;16.10;99.90;;;;;;5046752;28;20110;-76
2022/09/08 12:04:19;;;;;;;13.23;9.32;;;16.10;99.90;;;;;;5034796;28;20087;-77
2022/09/08 12:07:10;;;;;;;127.60;74.10;;;16.10;99.90;;;;;;5020646;28;20116;-77
2022/09/08 12:10:23;;;;;;;16.77;10.43;;;16.10;99.90;;;;;;5032968;28;20017;-77
2022/09/08 12:13:01;;;;;;;13.07;7.93;;;16.20;99.90;;;;;;4978578;28;20445;-78
2022/09/08 12:15:52;;;;;;;11.00;7.63;;;16.10;99.90;;;;;;5044011;28;20025;-77
2022/09/08 12:18:52;;;;;;;12.02;7.28;;;16.20;99.90;;;;;;5059633;28;20029;-77
2022/09/08 12:21:29;;;;;;;10.50;7.00;;;16.10;99.90;;;;;;5020849;28;20028;-77
2022/09/08 12:24:13;;;;;;;10.52;7.93;;;16.10;99.90;;;;;;5044337;28;20051;-79
2022/09/08 12:27:15;;;;;;;14.55;8.20;;;16.10;99.90;;;;;;5040553;28;20135;-76
2022/09/08 12:29:54;;;;;;;12.27;7.93;;;16.10;99.90;;;;;;5051882;28;20111;-78
2022/09/08 12:32:47;;;;;;;14.75;7.80;;;16.10;99.90;;;;;;5022232;28;20133;-76
2022/09/08 12:35:40;;;;;;;13.80;8.45;;;16.00;99.90;;;;;;5051246;28;20132;-77
2022/09/08 12:38:27;;;;;;;14.55;8.60;;;16.00;99.90;;;;;;5046689;28;20037;-75
2022/09/08 12:41:19;;;;;;;15.18;8.63;;;15.90;99.90;;;;;;5029290;28;20029;-78
2022/09/08 12:43:45;;;;;;;12.05;8.30;;;15.90;99.90;;;;;;5023780;28;20049;-78
2022/09/08 12:46:40;;;;;;;11.00;7.75;;;15.80;99.90;;;;;;5050595;28;20518;-76
2022/09/08 12:49:33;;;;;;;11.75;8.35;;;15.80;99.90;;;;;;5046524;28;20108;-76
2022/09/08 12:52:02;;;;;;;10.93;7.55;;;15.80;99.90;;;;;;5033295;28;20503;-77
2022/09/08 12:54:40;;;;;;;11.00;8.00;;;15.70;99.90;;;;;;5015103;28;20051;-78
2022/09/08 12:57:37;;;;;;;12.85;8.80;;;15.70;99.90;;;;;;5033329;28;20100;-76
2022/09/08 13:00:16;;;;;;;11.73;8.35;;;15.70;99.90;;;;;;5031755;28;20028;-77
2022/09/08 13:03:19;;;;;;;12.15;8.50;;;15.60;99.90;;;;;;5052376;28;20056;-78
2022/09/08 13:06:11;;;;;;;12.02;8.65;;;15.60;99.90;;;;;;5048112;28;20049;-75
2022/09/08 13:08:39;;;;;;;13.18;8.98;;;15.50;99.90;;;;;;5030615;28;20055;-75
2022/09/08 13:11:11;;;;;;;13.65;9.25;;;15.50;99.90;;;;;;5032734;28;20116;-76
2022/09/08 13:13:43;;;;;;;13.55;9.88;;;15.50;99.90;;;;;;5032182;28;20100;-77
2022/09/08 13:16:33;;;;;;;12.43;8.65;;;15.50;99.90;;;;;;5026830;28;20040;-77
2022/09/08 13:19:19;;;;;;;15.73;10.48;;;15.40;99.90;;;;;;5045681;28;20033;-76
2022/09/08 13:22:12;;;;;;;12.77;9.88;;;15.50;99.90;;;;;;5046191;28;20040;-77
2022/09/08 13:24:46;;;;;;;12.43;9.38;;;15.50;99.90;;;;;;5042880;28;20473;-77
2022/09/08 13:27:32;;;;;;;9.82;8.57;;;15.40;99.90;;;;;;5029988;28;20108;-78
2022/09/08 13:30:09;;;;;;;10.27;7.97;;;15.40;99.90;;;;;;5013659;28;20071;-78
2022/09/08 13:32:47;;;;;;;13.43;9.02;;;15.30;99.90;;;;;;5036723;28;20071;-79
2022/09/08 13:35:56;;;;;;;11.60;8.95;;;15.40;99.90;;;;;;5029505;28;20025;-77
2022/09/08 13:38:28;;;;;;;14.57;9.32;;;15.30;99.90;;;;;;5046881;28;20052;-79